createdAt,value
2018-03-21T00:01:47.471Z,27.80
2018-03-21T00:04:15.874Z,28.40
2018-03-21T00:06:44.246Z,28.17
2018-03-21T00:09:12.614Z,29.77
2018-03-21T00:11:41.006Z,29.52
2018-03-21T00:14:09.373Z,29.15
2018-03-21T00:16:37.766Z,27.95
2018-03-21T00:19:06.742Z,28.45
2018-03-21T00:21:36.052Z,28.75
2018-03-21T00:24:04.442Z,28.02
2018-03-21T00:26:33.576Z,27.13
2018-03-21T00:29:01.971Z,29.50
2018-03-21T00:31:30.351Z,28.58
2018-03-21T00:33:58.757Z,29.52
2018-03-21T00:36:28.654Z,32.42
2018-03-21T00:38:57.070Z,29.63
2018-03-21T00:41:26.226Z,30.48
2018-03-21T00:43:54.595Z,30.42
2018-03-21T00:46:22.995Z,31.70
2018-03-21T00:48:51.377Z,29.42
2018-03-21T00:51:19.775Z,29.85
2018-03-21T00:53:48.146Z,32.90
2018-03-21T00:56:16.691Z,30.27
2018-03-21T00:58:45.071Z,32.47
2018-03-21T01:01:13.450Z,32.55
2018-03-21T01:03:41.851Z,31.83
2018-03-21T01:06:10.220Z,31.52
2018-03-21T01:08:38.625Z,32.13
2018-03-21T01:11:07.888Z,32.03
2018-03-21T01:13:36.678Z,33.78
2018-03-21T01:16:05.083Z,30.95
2018-03-21T01:18:33.521Z,33.30
2018-03-21T01:21:01.913Z,32.97
2018-03-21T01:23:30.290Z,34.17
2018-03-21T01:25:58.686Z,31.27
2018-03-21T01:28:27.063Z,31.85
2018-03-21T01:30:55.463Z,32.67
2018-03-21T01:33:24.614Z,28.92
2018-03-21T01:35:52.992Z,30.88
2018-03-21T01:38:21.400Z,30.05
2018-03-21T01:40:49.814Z,28.02
2018-03-21T01:43:18.281Z,27.90
2018-03-21T01:45:47.422Z,26.37
2018-03-21T01:48:16.223Z,27.75
2018-03-21T01:50:44.589Z,27.92
2018-03-21T01:53:12.976Z,27.00
2018-03-21T01:55:41.406Z,28.08
2018-03-21T01:58:10.558Z,27.35
2018-03-21T02:00:39.025Z,25.90
2018-03-21T02:03:07.466Z,24.83
2018-03-21T02:05:37.045Z,27.65
2018-03-21T02:08:05.509Z,26.95
2018-03-21T02:10:33.886Z,25.77
2018-03-21T02:13:02.287Z,25.92
2018-03-21T02:15:30.660Z,28.73
2018-03-21T02:17:59.063Z,25.85
2018-03-21T02:20:28.225Z,24.35
2018-03-21T02:22:56.663Z,25.62
2018-03-21T02:25:25.076Z,22.80
2018-03-21T02:27:53.454Z,23.70
2018-03-21T02:30:21.867Z,22.95
2018-03-21T02:32:50.243Z,22.58
2018-03-21T02:35:18.638Z,23.70
2018-03-21T02:37:47.836Z,25.35
2018-03-21T02:40:17.024Z,23.35
2018-03-21T02:42:46.191Z,24.08
2018-03-21T02:45:14.572Z,23.15
2018-03-21T02:47:42.966Z,22.20
2018-03-21T02:50:11.341Z,24.48
2018-03-21T02:52:39.738Z,23.67
2018-03-21T02:55:08.881Z,23.35
2018-03-21T02:57:37.326Z,23.45
2018-03-21T03:00:06.496Z,23.12
2018-03-21T03:02:35.647Z,22.92
2018-03-21T03:05:04.056Z,23.33
2018-03-21T03:07:32.442Z,22.65
2018-03-21T03:10:00.838Z,21.92
2018-03-21T03:12:29.210Z,22.83
2018-03-21T03:14:57.599Z,21.98
2018-03-21T03:17:26.747Z,20.33
2018-03-21T03:19:55.121Z,22.23
2018-03-21T03:22:23.514Z,18.55
2018-03-21T03:24:51.882Z,21.25
2018-03-21T03:27:20.281Z,20.98
2018-03-21T03:29:48.660Z,18.95
2018-03-21T03:32:17.190Z,19.23
2018-03-21T03:34:45.585Z,20.27
2018-03-21T03:37:13.954Z,18.62
2018-03-21T03:39:42.343Z,19.55
2018-03-21T03:42:10.718Z,20.12
2018-03-21T03:44:39.123Z,20.73
2018-03-21T03:47:07.494Z,20.67
2018-03-21T03:49:35.865Z,21.15
2018-03-21T03:52:04.275Z,20.60
2018-03-21T03:54:32.650Z,18.45
2018-03-21T03:57:01.042Z,18.75
2018-03-21T03:59:30.645Z,17.05
2018-03-21T04:01:59.071Z,19.83
2018-03-21T04:04:27.446Z,19.52
2018-03-21T04:06:55.878Z,17.35
2018-03-21T04:09:24.277Z,18.27
2018-03-21T04:11:52.636Z,18.90
2018-03-21T04:14:21.046Z,18.55
2018-03-21T04:16:50.180Z,18.95
2018-03-21T04:19:18.861Z,17.17
2018-03-21T04:21:47.229Z,16.90
2018-03-21T04:24:15.647Z,16.10
2018-03-21T04:26:44.047Z,15.27
2018-03-21T04:29:12.417Z,16.50
2018-03-21T04:31:40.816Z,15.45
2018-03-21T04:34:09.954Z,16.95
2018-03-21T04:36:38.537Z,14.95
2018-03-21T04:39:06.906Z,16.40
2018-03-21T04:41:35.286Z,13.88
2018-03-21T04:44:03.674Z,13.65
2018-03-21T04:46:32.622Z,13.82
2018-03-21T04:49:02.407Z,15.15
2018-03-21T04:51:31.254Z,14.77
2018-03-21T04:54:00.291Z,13.73
2018-03-21T04:56:29.131Z,15.68
2018-03-21T04:58:58.176Z,18.30
2018-03-21T05:01:27.450Z,17.17
2018-03-21T05:03:56.832Z,16.98
2018-03-21T05:06:26.695Z,17.90
2018-03-21T05:08:55.519Z,18.27
2018-03-21T05:11:24.332Z,27.45
2018-03-21T05:13:52.709Z,20.77
2018-03-21T05:16:21.075Z,16.98
2018-03-21T05:18:49.501Z,15.38
2018-03-21T05:21:17.869Z,17.23
2018-03-21T05:23:47.125Z,16.77
2018-03-21T05:26:15.504Z,17.30
2018-03-21T05:28:43.931Z,17.50
2018-03-21T05:31:12.307Z,18.45
2018-03-21T05:33:40.677Z,14.98
2018-03-21T05:36:09.077Z,13.45
2018-03-21T05:38:37.446Z,14.23
2018-03-21T05:41:05.852Z,12.90
2018-03-21T05:43:35.107Z,11.45
2018-03-21T05:46:03.684Z,12.25
2018-03-21T05:48:32.070Z,10.65
2018-03-21T05:51:00.440Z,10.43
2018-03-21T05:53:28.834Z,9.68
2018-03-21T05:55:57.230Z,10.18
2018-03-21T05:58:25.631Z,8.77
2018-03-21T06:00:54.776Z,9.93
2018-03-21T06:03:23.311Z,8.13
2018-03-21T06:05:52.433Z,7.75
2018-03-21T06:08:20.836Z,8.93
2018-03-21T06:10:49.240Z,8.40
2018-03-21T06:13:17.609Z,9.52
2018-03-21T06:15:46.028Z,9.38
2018-03-21T06:18:15.157Z,9.80
2018-03-21T06:20:43.573Z,8.18
2018-03-21T06:23:11.936Z,8.30
2018-03-21T06:25:40.301Z,9.73
2018-03-21T06:28:08.697Z,8.55
2018-03-21T06:30:37.069Z,7.90
2018-03-21T06:33:05.467Z,7.55
2018-03-21T06:35:33.833Z,7.22
2018-03-21T06:38:02.517Z,7.30
2018-03-21T06:40:30.882Z,6.95
2018-03-21T06:42:59.247Z,7.55
2018-03-21T06:45:27.658Z,7.50
2018-03-21T06:50:30.618Z,6.57
2018-03-21T06:52:58.989Z,6.62
2018-03-21T06:55:27.681Z,6.50
2018-03-21T06:57:56.066Z,5.87
2018-03-21T07:00:24.437Z,6.68
2018-03-21T07:02:52.824Z,6.50
2018-03-21T07:05:21.205Z,6.65
2018-03-21T07:07:49.602Z,5.05
2018-03-21T07:10:17.986Z,6.82
2018-03-21T07:12:46.645Z,6.70
2018-03-21T07:15:32.903Z,4.95
2018-03-21T07:18:02.349Z,5.35
2018-03-21T07:20:30.719Z,5.97
2018-03-21T07:22:59.086Z,5.70
2018-03-21T07:25:27.482Z,4.95
2018-03-21T07:27:55.855Z,4.82
2018-03-21T07:30:24.248Z,5.70
2018-03-21T07:32:52.619Z,5.85
2018-03-21T07:35:21.001Z,4.80
2018-03-21T07:37:49.360Z,5.82
2018-03-21T07:40:17.759Z,5.07
2018-03-21T07:42:46.126Z,5.47
2018-03-21T07:45:14.727Z,5.03
2018-03-21T07:47:43.094Z,6.00
2018-03-21T07:50:11.458Z,4.85
2018-03-21T07:52:39.853Z,4.50
2018-03-21T07:55:08.345Z,5.45
2018-03-21T07:57:36.730Z,5.20
2018-03-21T08:00:05.089Z,5.47
2018-03-21T08:02:33.600Z,5.03
2018-03-21T08:05:01.962Z,5.85
2018-03-21T08:07:30.333Z,4.95
2018-03-21T08:09:58.711Z,5.85
2018-03-21T08:12:27.075Z,5.90
2018-03-21T08:14:55.467Z,4.95
2018-03-21T08:17:23.830Z,5.12
2018-03-21T08:19:52.222Z,5.15
2018-03-21T08:22:20.613Z,5.55
2018-03-21T08:24:48.978Z,5.72
2018-03-21T08:27:17.367Z,5.03
2018-03-21T08:29:45.725Z,5.05
2018-03-21T08:32:14.220Z,4.97
2018-03-21T08:34:42.585Z,5.80
2018-03-21T08:37:11.013Z,6.12
2018-03-21T08:39:39.387Z,6.55
2018-03-21T08:42:07.760Z,5.97
2018-03-21T08:44:36.158Z,6.53
2018-03-21T08:47:05.320Z,5.97
2018-03-21T08:49:33.725Z,5.53
2018-03-21T08:52:02.100Z,5.60
2018-03-21T08:54:30.758Z,6.37
2018-03-21T08:56:59.141Z,6.35
2018-03-21T08:59:27.514Z,6.45
2018-03-21T09:01:55.916Z,6.07
2018-03-21T09:04:24.326Z,5.20
2018-03-21T09:06:53.490Z,6.87
2018-03-21T09:09:21.868Z,6.50
2018-03-21T09:11:50.286Z,5.93
2018-03-21T09:14:18.667Z,6.37
2018-03-21T09:16:47.054Z,5.05
2018-03-21T09:19:15.504Z,5.85
2018-03-21T09:21:44.661Z,6.15
2018-03-21T09:24:13.059Z,5.30
2018-03-21T09:26:41.437Z,6.70
2018-03-21T09:29:11.532Z,5.93
2018-03-21T09:31:39.908Z,6.50
2018-03-21T09:34:08.276Z,5.73
2018-03-21T09:36:36.673Z,6.23
2018-03-21T09:39:05.079Z,5.47
2018-03-21T09:41:33.493Z,6.63
2018-03-21T09:44:01.883Z,6.60
2018-03-21T09:46:30.587Z,6.00
2018-03-21T09:48:58.973Z,7.50
2018-03-21T09:51:27.348Z,6.97
2018-03-21T09:53:55.752Z,6.97
2018-03-21T09:56:24.132Z,7.07
2018-03-21T09:58:52.692Z,7.80
2018-03-21T10:01:21.070Z,7.72
2018-03-21T10:03:49.650Z,8.05
2018-03-21T10:06:18.038Z,7.68
2018-03-21T10:08:46.474Z,7.40
2018-03-21T10:11:15.607Z,7.20
2018-03-21T10:13:43.982Z,7.87
2018-03-21T10:16:12.425Z,6.68
2018-03-21T10:18:40.814Z,5.68
2018-03-21T10:21:09.463Z,7.07
2018-03-21T10:23:39.008Z,6.80
2018-03-21T10:26:07.414Z,6.70
2018-03-21T10:28:35.819Z,5.63
2018-03-21T10:31:04.209Z,6.00
2018-03-21T10:33:33.409Z,5.67
2018-03-21T10:36:02.585Z,6.17
2018-03-21T10:38:30.993Z,5.73
2018-03-21T10:40:59.371Z,6.27
2018-03-21T10:43:28.591Z,6.40
2018-03-21T10:45:56.998Z,6.60
2018-03-21T10:48:25.383Z,7.18
2018-03-21T10:50:53.851Z,5.80
2018-03-21T10:53:22.207Z,6.78
2018-03-21T10:55:50.605Z,5.95
2018-03-21T10:58:18.984Z,7.28
2018-03-21T11:00:47.561Z,7.05
2018-03-21T11:03:15.936Z,6.75
2018-03-21T11:05:44.364Z,6.53
2018-03-21T11:08:12.797Z,6.87
2018-03-21T11:10:41.218Z,6.65
2018-03-21T11:13:10.398Z,7.40
2018-03-21T11:15:38.778Z,7.87
2018-03-21T11:18:07.541Z,6.40
2018-03-21T11:20:35.900Z,7.50
2018-03-21T11:23:04.264Z,6.85
2018-03-21T11:25:32.677Z,7.32
2018-03-21T11:28:01.037Z,6.07
2018-03-21T11:30:29.430Z,7.43
2018-03-21T11:32:57.794Z,6.55
2018-03-21T11:35:26.191Z,6.43
2018-03-21T11:37:54.559Z,7.10
2018-03-21T11:40:23.127Z,7.03
2018-03-21T11:42:51.509Z,5.62
2018-03-21T11:45:19.879Z,5.85
2018-03-21T11:47:48.290Z,4.72
2018-03-21T11:50:16.780Z,5.72
2018-03-21T11:52:45.182Z,5.83
2018-03-21T11:55:13.562Z,5.80
2018-03-21T11:57:42.158Z,4.67
2018-03-21T12:00:11.355Z,5.03
2018-03-21T12:02:40.497Z,4.80
2018-03-21T12:05:08.901Z,6.70
2018-03-21T12:07:37.305Z,6.20
2018-03-21T12:10:05.699Z,5.85
2018-03-21T12:12:34.850Z,6.55
2018-03-21T12:15:03.255Z,6.85
2018-03-21T12:17:31.629Z,6.30
2018-03-21T12:20:00.287Z,7.30
2018-03-21T12:22:28.708Z,6.45
2018-03-21T12:24:57.117Z,6.05
2018-03-21T12:27:25.526Z,6.70
2018-03-21T12:29:53.890Z,6.30
2018-03-21T12:32:22.299Z,6.57
2018-03-21T12:34:50.665Z,7.68
2018-03-21T12:37:19.086Z,7.65
2018-03-21T12:39:48.208Z,7.40
2018-03-21T12:42:16.581Z,6.93
2018-03-21T12:44:45.008Z,6.50
2018-03-21T12:47:13.380Z,6.87
2018-03-21T12:49:41.777Z,8.25
2018-03-21T12:52:10.141Z,7.55
2018-03-21T12:54:38.565Z,6.70
2018-03-21T12:57:07.697Z,7.80
2018-03-21T12:59:36.075Z,7.50
2018-03-21T13:02:04.495Z,7.55
2018-03-21T13:04:32.872Z,13.45
2018-03-21T13:07:01.317Z,7.68
2018-03-21T13:09:29.678Z,7.70
2018-03-21T13:11:58.130Z,7.15
2018-03-21T13:14:27.263Z,8.05
2018-03-21T13:16:55.632Z,6.75
2018-03-21T13:19:24.031Z,7.75
2018-03-21T13:21:52.405Z,6.53
2018-03-21T13:24:20.801Z,5.32
2018-03-21T13:26:49.181Z,31.42
2018-03-21T13:29:17.941Z,7.50
2018-03-21T13:31:46.293Z,6.95
2018-03-21T13:34:14.664Z,7.03
2018-03-21T13:36:43.824Z,6.43
2018-03-21T13:39:12.190Z,6.05
2018-03-21T13:41:40.581Z,9.45
2018-03-21T13:44:08.961Z,9.07
2018-03-21T13:46:37.379Z,7.53
2018-03-21T13:49:05.744Z,9.05
2018-03-21T13:51:34.917Z,8.50
2018-03-21T13:54:03.575Z,8.27
2018-03-21T13:56:32.412Z,8.35
2018-03-21T13:59:01.570Z,8.63
2018-03-21T14:01:29.934Z,8.50
2018-03-21T14:03:58.341Z,8.48
2018-03-21T14:06:26.721Z,9.38
2018-03-21T14:08:55.380Z,7.93
2018-03-21T14:11:23.789Z,19.52
2018-03-21T14:13:52.165Z,9.02
2018-03-21T14:16:20.572Z,6.40
2018-03-21T14:18:49.798Z,7.30
2018-03-21T14:21:18.930Z,7.32
2018-03-21T14:23:47.691Z,7.05
2018-03-21T14:26:16.269Z,7.18
2018-03-21T14:28:44.649Z,8.35
2018-03-21T14:31:14.102Z,6.95
2018-03-21T14:33:42.513Z,7.10
2018-03-21T14:36:10.899Z,20.77
2018-03-21T14:38:39.777Z,6.37
2018-03-21T14:41:08.154Z,6.30
2018-03-21T14:43:36.766Z,6.12
2018-03-21T14:46:05.200Z,6.78
2018-03-21T14:48:34.411Z,7.20
2018-03-21T14:51:02.813Z,5.47
2018-03-21T14:53:31.198Z,6.43
2018-03-21T14:55:59.998Z,5.28
2018-03-21T14:58:28.394Z,6.18
2018-03-21T15:00:57.053Z,6.70
2018-03-21T15:03:25.439Z,6.55
2018-03-21T15:05:53.835Z,5.82
2018-03-21T15:08:22.268Z,5.47
2018-03-21T15:10:50.665Z,5.90
2018-03-21T15:13:19.082Z,5.57
2018-03-21T15:15:47.482Z,5.15
2018-03-21T15:18:16.939Z,5.57
2018-03-21T15:20:46.451Z,6.15
2018-03-21T15:23:14.835Z,4.90
2018-03-21T15:25:43.246Z,5.72
2018-03-21T15:28:12.395Z,4.95
2018-03-21T15:30:41.012Z,31.98
2018-03-21T15:33:10.310Z,11.70
2018-03-21T15:35:38.858Z,5.30
2018-03-21T15:38:07.359Z,5.12
2018-03-21T15:40:35.729Z,4.30
2018-03-21T15:43:04.244Z,5.37
2018-03-21T15:45:32.637Z,4.95
2018-03-21T15:48:01.881Z,4.07
2018-03-21T15:50:30.254Z,4.35
2018-03-21T15:52:58.842Z,4.65
2018-03-21T15:55:27.223Z,4.95
2018-03-21T15:57:55.612Z,4.10
2018-03-21T16:00:23.998Z,4.37
2018-03-21T16:02:52.485Z,4.05
2018-03-21T16:05:21.816Z,4.53
2018-03-21T16:07:50.202Z,3.95
2018-03-21T16:10:18.722Z,15.07
2018-03-21T16:12:47.102Z,10.25
2018-03-21T16:15:15.659Z,5.60
2018-03-21T16:17:44.046Z,3.67
2018-03-21T16:20:12.434Z,3.75
2018-03-21T16:22:40.815Z,3.75
2018-03-21T16:25:09.193Z,3.92
2018-03-21T16:27:37.634Z,3.90
2018-03-21T16:30:06.785Z,3.92
2018-03-21T16:32:35.182Z,3.65
2018-03-21T16:35:03.856Z,3.58
2018-03-21T16:37:32.330Z,4.28
2018-03-21T16:40:00.914Z,4.50
2018-03-21T16:42:29.289Z,3.95
2018-03-21T16:44:57.748Z,3.90
2018-03-21T16:47:26.293Z,3.75
2018-03-21T16:49:55.534Z,3.67
2018-03-21T16:52:23.940Z,4.22
2018-03-21T16:54:52.338Z,3.47
2018-03-21T16:57:20.848Z,3.95
2018-03-21T16:59:49.251Z,4.00
2018-03-21T17:02:18.908Z,3.45
2018-03-21T17:04:48.576Z,10.98
2018-03-21T17:07:17.308Z,4.47
2018-03-21T17:09:45.724Z,3.28
2018-03-21T17:12:14.155Z,3.62
2018-03-21T17:14:42.525Z,3.20
2018-03-21T17:17:10.910Z,3.65
2018-03-21T17:19:40.145Z,3.40
2018-03-21T17:22:08.552Z,3.55
2018-03-21T17:24:36.962Z,3.67
2018-03-21T17:27:05.726Z,3.95
2018-03-21T17:29:34.095Z,3.60
2018-03-21T17:32:02.466Z,3.55
2018-03-21T17:34:30.947Z,31.15
2018-03-21T17:36:59.331Z,18.65
2018-03-21T17:39:27.742Z,4.82
2018-03-21T17:41:56.878Z,4.62
2018-03-21T17:44:26.005Z,4.15
2018-03-21T17:46:56.366Z,3.90
2018-03-21T17:49:24.749Z,4.18
2018-03-21T17:51:53.929Z,5.70
2018-03-21T17:54:22.297Z,4.28
2018-03-21T17:56:50.681Z,4.65
2018-03-21T17:59:19.185Z,4.60
2018-03-21T18:01:48.358Z,3.55
2018-03-21T18:04:16.765Z,7.75
2018-03-21T18:06:46.118Z,4.95
2018-03-21T18:09:14.478Z,3.90
2018-03-21T18:11:43.188Z,3.70
2018-03-21T18:14:11.569Z,4.05
2018-03-21T18:16:39.945Z,4.47
2018-03-21T18:19:08.408Z,5.95
2018-03-21T18:21:36.787Z,5.35
2018-03-21T18:24:05.168Z,5.90
2018-03-21T18:26:33.632Z,14.73
2018-03-21T18:29:02.407Z,13.02
2018-03-21T18:31:30.806Z,6.35
2018-03-21T18:33:59.165Z,4.55
2018-03-21T18:36:28.844Z,4.43
2018-03-21T18:38:57.633Z,4.95
2018-03-21T18:41:27.937Z,5.32
2018-03-21T18:43:56.312Z,5.57
2018-03-21T18:46:24.686Z,5.12
2018-03-21T18:48:53.289Z,4.18
2018-03-21T18:51:21.982Z,5.87
2018-03-21T18:53:50.442Z,11.80
2018-03-21T18:56:19.222Z,7.10
2018-03-21T18:58:48.125Z,7.05
2018-03-21T19:01:17.009Z,17.48
2018-03-21T19:03:47.201Z,6.60
2018-03-21T19:06:15.982Z,11.45
2018-03-21T19:08:44.683Z,17.90
2018-03-21T19:11:13.480Z,10.85
2018-03-21T19:13:43.119Z,7.93
2018-03-21T19:16:12.530Z,6.87
2018-03-21T19:18:42.393Z,8.15
2018-03-21T19:21:11.906Z,6.30
2018-03-21T19:23:43.306Z,8.02
2018-03-21T19:26:12.753Z,6.78
2018-03-21T19:28:42.109Z,9.00
2018-03-21T19:31:12.574Z,6.70
2018-03-21T19:33:42.540Z,7.80
2018-03-21T19:36:12.538Z,9.73
2018-03-21T19:38:42.166Z,9.20
2018-03-21T19:41:12.730Z,8.23
2018-03-21T19:43:42.315Z,10.07
2018-03-21T19:46:12.217Z,10.30
2018-03-21T19:48:42.475Z,8.38
2018-03-21T19:51:12.314Z,10.50
2018-03-21T19:53:41.585Z,11.68
2018-03-21T19:56:11.307Z,10.55
2018-03-21T19:58:41.439Z,11.18
2018-03-21T20:01:10.433Z,12.05
2018-03-21T20:03:38.977Z,13.05
2018-03-21T20:06:08.772Z,10.63
2018-03-21T20:08:38.705Z,11.15
2018-03-21T20:11:07.217Z,11.40
2018-03-21T20:13:36.833Z,9.25
2018-03-21T20:16:05.706Z,10.07
2018-03-21T20:18:34.396Z,10.35
2018-03-21T20:21:04.123Z,9.27
2018-03-21T20:23:32.926Z,7.55
2018-03-21T20:26:01.671Z,7.18
2018-03-21T20:28:31.505Z,6.70
2018-03-21T20:31:00.112Z,8.05
2018-03-21T20:33:29.524Z,7.35
2018-03-21T20:35:58.963Z,6.50
2018-03-21T20:38:27.634Z,8.23
2018-03-21T20:40:57.187Z,6.32
2018-03-21T20:43:25.990Z,7.32
2018-03-21T20:45:55.192Z,7.45
2018-03-21T20:48:23.771Z,7.90
2018-03-21T20:50:52.414Z,7.90
2018-03-21T20:53:21.228Z,8.10
2018-03-21T20:55:51.210Z,7.40
2018-03-21T20:58:19.829Z,8.27
2018-03-21T21:00:50.745Z,8.32
2018-03-21T21:03:20.124Z,8.02
2018-03-21T21:05:48.869Z,9.10
2018-03-21T21:08:17.285Z,7.95
2018-03-21T21:10:46.738Z,6.95
2018-03-21T21:13:15.141Z,7.43
2018-03-21T21:15:43.593Z,8.15
2018-03-21T21:18:11.978Z,9.02
2018-03-21T21:20:40.457Z,7.22
2018-03-21T21:23:09.031Z,9.48
2018-03-21T21:25:37.434Z,7.62
2018-03-21T21:28:05.801Z,9.00
2018-03-21T21:30:34.217Z,9.13
2018-03-21T21:33:03.351Z,8.23
2018-03-21T21:35:32.954Z,8.85
2018-03-21T21:38:01.373Z,10.63
2018-03-21T21:40:30.048Z,16.40
2018-03-21T21:42:59.092Z,18.10
2018-03-21T21:45:28.563Z,16.10
2018-03-21T21:47:56.999Z,16.48
2018-03-21T21:50:25.376Z,17.90
2018-03-21T21:52:53.778Z,14.90
2018-03-21T21:55:22.162Z,13.25
2018-03-21T21:57:50.566Z,13.15
2018-03-21T22:00:19.789Z,13.05
2018-03-21T22:02:49.550Z,10.30
2018-03-21T22:05:17.926Z,10.05
2018-03-21T22:07:46.302Z,10.38
2018-03-21T22:10:14.709Z,11.90
2018-03-21T22:12:43.087Z,12.45
2018-03-21T22:15:11.497Z,11.02
2018-03-21T22:17:40.639Z,12.77
2018-03-21T22:20:09.429Z,12.48
2018-03-21T22:22:37.802Z,10.80
2018-03-21T22:25:06.179Z,12.98
2018-03-21T22:27:35.376Z,12.35
2018-03-21T22:30:03.772Z,13.13
2018-03-21T22:32:32.169Z,13.82
2018-03-21T22:35:00.549Z,13.27
2018-03-21T22:37:29.901Z,13.30
2018-03-21T22:39:58.276Z,15.23
2018-03-21T22:42:26.670Z,14.43
2018-03-21T22:44:55.086Z,14.65
2018-03-21T22:47:23.474Z,13.50
2018-03-21T22:49:52.654Z,13.93
2018-03-21T22:52:21.592Z,14.15
2018-03-21T22:54:50.361Z,15.00
2018-03-21T22:57:19.511Z,15.63
2018-03-21T22:59:47.885Z,15.80
2018-03-21T23:02:16.664Z,15.27
2018-03-21T23:04:45.054Z,15.35
2018-03-21T23:07:13.469Z,13.35
2018-03-21T23:09:42.621Z,13.32
2018-03-21T23:12:11.411Z,13.02
2018-03-21T23:14:39.795Z,12.50
2018-03-21T23:17:08.203Z,14.68
2018-03-21T23:19:36.613Z,13.98
2018-03-21T23:22:05.070Z,14.45
2018-03-21T23:24:34.240Z,13.50
2018-03-21T23:27:02.619Z,15.07
2018-03-21T23:29:31.022Z,14.45
2018-03-21T23:32:00.193Z,13.25
2018-03-21T23:34:28.579Z,14.32
2018-03-21T23:36:56.993Z,15.27
2018-03-21T23:39:25.396Z,14.52
2018-03-21T23:41:53.876Z,13.77
2018-03-21T23:44:22.275Z,13.50
2018-03-21T23:46:50.987Z,14.73
2018-03-21T23:49:19.373Z,14.48
2018-03-21T23:51:48.033Z,13.07
2018-03-21T23:54:16.455Z,14.15
2018-03-21T23:56:45.610Z,14.18
2018-03-21T23:59:14.821Z,13.18
